Lone Pine, California
Current Conditions -  °F | °C
As of 2:56 AM on Tuesday 21 Oct 2014 (Local Time) from KBIH Reporting Station
Clear Clear  
Wind Chill: 45°   Ceiling: Unl
Heat Index: 49°   Visibility: 10mi
Dew Point: 20°   Wind: 10mph
Humidity: 32%   Direction: 320°NW
Pressure: 29.93"   Gusts: NA
Location:  36.61°N, 118.06°W
Report Text: KBIH 210956Z AUTO 32009KT 10SM CLR 09/M07 A2993 RMK AO2 SLP094 T00941067
Loading
Personal Weather Stations






























Interactive Weather Map
Tropical Storm Tracking
New forecast layout! Learn more

10-Day Weather Forecast

Advertisements
Track Severe Weather on mobile